sensor_id;sensor_type;location;lat;lon;timestamp;pressure;altitude;pressure_sealevel;temperature;humidity
56721;BME280;53183;47.412;18.884;2023-01-28T00:01:56;99259.84;;;0.36;100.00
56721;BME280;53183;47.412;18.884;2023-01-28T00:04:24;99264.13;;;0.39;100.00
56721;BME280;53183;47.412;18.884;2023-01-28T00:06:51;99263.34;;;0.34;100.00
56721;BME280;53183;47.412;18.884;2023-01-28T00:09:19;99268.50;;;0.37;100.00
56721;BME280;53183;47.412;18.884;2023-01-28T00:11:47;99263.25;;;0.40;100.00
56721;BME280;53183;47.412;18.884;2023-01-28T00:14:14;99274.72;;;0.27;100.00
56721;BME280;53183;47.412;18.884;2023-01-28T00:16:41;99270.34;;;0.29;100.00
56721;BME280;53183;47.412;18.884;2023-01-28T00:19:09;99277.13;;;0.39;100.00
56721;BME280;53183;47.412;18.884;2023-01-28T00:21:36;99270.97;;;0.44;99.85
56721;BME280;53183;47.412;18.884;2023-01-28T00:24:03;99269.41;;;0.34;100.00
56721;BME280;53183;47.412;18.884;2023-01-28T00:26:33;99273.62;;;0.41;100.00
56721;BME280;53183;47.412;18.884;2023-01-28T00:29:00;99271.78;;;0.48;100.00
56721;BME280;53183;47.412;18.884;2023-01-28T00:31:27;99275.38;;;0.39;100.00
56721;BME280;53183;47.412;18.884;2023-01-28T00:33:55;99273.84;;;0.28;100.00
56721;BME280;53183;47.412;18.884;2023-01-28T00:36:24;99272.94;;;0.29;100.00
56721;BME280;53183;47.412;18.884;2023-01-28T00:38:55;99277.28;;;0.30;100.00
56721;BME280;53183;47.412;18.884;2023-01-28T00:41:25;99278.28;;;0.21;100.00
56721;BME280;53183;47.412;18.884;2023-01-28T00:43:52;99281.84;;;0.12;100.00
56721;BME280;53183;47.412;18.884;2023-01-28T00:46:20;99277.41;;;0.20;100.00
56721;BME280;53183;47.412;18.884;2023-01-28T00:48:49;99277.56;;;0.10;100.00
56721;BME280;53183;47.412;18.884;2023-01-28T00:51:17;99281.91;;;0.11;100.00
56721;BME280;53183;47.412;18.884;2023-01-28T00:53:46;99280.16;;;0.11;100.00
56721;BME280;53183;47.412;18.884;2023-01-28T00:56:14;99285.25;;;0.16;100.00
56721;BME280;53183;47.412;18.884;2023-01-28T00:58:43;99286.31;;;0.03;100.00
56721;BME280;53183;47.412;18.884;2023-01-28T01:01:12;99287.34;;;-0.06;100.00
56721;BME280;53183;47.412;18.884;2023-01-28T01:03:41;99285.59;;;-0.07;100.00
56721;BME280;53183;47.412;18.884;2023-01-28T01:06:09;99287.31;;;-0.05;100.00
56721;BME280;53183;47.412;18.884;2023-01-28T01:08:37;99291.56;;;0.01;100.00
56721;BME280;53183;47.412;18.884;2023-01-28T01:11:09;99287.28;;;-0.03;100.00
56721;BME280;53183;47.412;18.884;2023-01-28T01:13:37;99292.63;;;-0.12;100.00
56721;BME280;53183;47.412;18.884;2023-01-28T01:18:35;99288.12;;;-0.01;100.00
56721;BME280;53183;47.412;18.884;2023-01-28T01:21:06;99288.91;;;0.04;100.00
56721;BME280;53183;47.412;18.884;2023-01-28T01:23:34;99289.84;;;0.00;100.00
56721;BME280;53183;47.412;18.884;2023-01-28T01:26:02;99294.06;;;0.07;100.00
56721;BME280;53183;47.412;18.884;2023-01-28T01:28:30;99288.19;;;-0.07;100.00
56721;BME280;53183;47.412;18.884;2023-01-28T01:31:01;99292.47;;;-0.02;100.00
56721;BME280;53183;47.412;18.884;2023-01-28T01:33:29;99293.09;;;0.13;100.00
56721;BME280;53183;47.412;18.884;2023-01-28T01:35:57;99290.47;;;0.17;99.66
56721;BME280;53183;47.412;18.884;2023-01-28T01:38:25;99298.94;;;0.30;98.94
56721;BME280;53183;47.412;18.884;2023-01-28T01:40:56;99297.91;;;0.39;98.50
56721;BME280;53183;47.412;18.884;2023-01-28T01:46:12;99297.06;;;0.38;98.38
56721;BME280;53183;47.412;18.884;2023-01-28T01:48:41;99298.75;;;0.41;97.71
56721;BME280;53183;47.412;18.884;2023-01-28T01:51:09;99304.84;;;0.40;98.08
56721;BME280;53183;47.412;18.884;2023-01-28T01:53:40;99304.84;;;0.40;99.04
56721;BME280;53183;47.412;18.884;2023-01-28T01:56:09;99312.34;;;0.58;97.66
56721;BME280;53183;47.412;18.884;2023-01-28T01:58:40;99306.28;;;0.59;97.98
56721;BME280;53183;47.412;18.884;2023-01-28T02:01:08;99307.97;;;0.60;98.41
56721;BME280;53183;47.412;18.884;2023-01-28T02:03:46;99317.47;;;0.63;98.76
56721;BME280;53183;47.412;18.884;2023-01-28T02:06:16;99316.63;;;0.61;99.75
56721;BME280;53183;47.412;18.884;2023-01-28T02:08:44;99313.19;;;0.60;99.61
56721;BME280;53183;47.412;18.884;2023-01-28T02:11:11;99307.25;;;0.51;100.00
56721;BME280;53183;47.412;18.884;2023-01-28T02:13:41;99315.06;;;0.51;100.00
56721;BME280;53183;47.412;18.884;2023-01-28T02:16:10;99307.13;;;0.58;100.00
56721;BME280;53183;47.412;18.884;2023-01-28T02:18:38;99308.97;;;0.52;100.00
56721;BME280;53183;47.412;18.884;2023-01-28T02:32:04;99307.09;;;0.61;98.70
56721;BME280;53183;47.412;18.884;2023-01-28T02:36:58;99299.91;;;0.76;98.20
56721;BME280;53183;47.412;18.884;2023-01-28T02:39:30;99293.03;;;0.72;98.43
56721;BME280;53183;47.412;18.884;2023-01-28T02:42:10;99299.37;;;0.55;99.15
56721;BME280;53183;47.412;18.884;2023-01-28T02:44:39;99300.13;;;0.63;99.24
56721;BME280;53183;47.412;18.884;2023-01-28T02:47:11;99304.34;;;0.70;98.87
56721;BME280;53183;47.412;18.884;2023-01-28T02:49:58;99300.19;;;0.60;99.63
56721;BME280;53183;47.412;18.884;2023-01-28T02:57:57;99302.69;;;0.66;100.00
56721;BME280;53183;47.412;18.884;2023-01-28T03:00:33;99308.72;;;0.67;99.61
56721;BME280;53183;47.412;18.884;2023-01-28T03:03:08;99303.47;;;0.70;99.63
56721;BME280;53183;47.412;18.884;2023-01-28T03:05:44;99307.75;;;0.74;99.59
56721;BME280;53183;47.412;18.884;2023-01-28T03:08:34;99304.28;;;0.72;99.23
56721;BME280;53183;47.412;18.884;2023-01-28T03:11:21;99304.44;;;0.64;99.41
56721;BME280;53183;47.412;18.884;2023-01-28T03:14:07;99299.31;;;0.58;100.00
56721;BME280;53183;47.412;18.884;2023-01-28T03:16:53;99297.53;;;0.62;99.76
56721;BME280;53183;47.412;18.884;2023-01-28T03:19:42;99299.53;;;0.46;100.00
56721;BME280;53183;47.412;18.884;2023-01-28T03:22:28;99306.66;;;0.35;100.00
56721;BME280;53183;47.412;18.884;2023-01-28T03:25:17;99305.66;;;0.42;100.00
56721;BME280;53183;47.412;18.884;2023-01-28T03:28:05;99308.34;;;0.36;100.00
56721;BME280;53183;47.412;18.884;2023-01-28T03:31:05;99309.16;;;0.39;100.00
56721;BME280;53183;47.412;18.884;2023-01-28T03:33:53;99303.28;;;0.30;100.00
56721;BME280;53183;47.412;18.884;2023-01-28T03:36:39;99304.94;;;0.32;100.00
56721;BME280;53183;47.412;18.884;2023-01-28T03:39:28;99307.66;;;0.23;100.00
56721;BME280;53183;47.412;18.884;2023-01-28T03:41:57;99311.19;;;0.20;100.00
56721;BME280;53183;47.412;18.884;2023-01-28T03:44:25;99304.16;;;0.27;100.00
56721;BME280;53183;47.412;18.884;2023-01-28T03:47:11;99313.59;;;0.34;100.00
56721;BME280;53183;47.412;18.884;2023-01-28T03:49:39;99318.78;;;0.33;100.00
56721;BME280;53183;47.412;18.884;2023-01-28T03:52:07;99315.72;;;0.06;100.00
56721;BME280;53183;47.412;18.884;2023-01-28T03:54:34;99315.66;;;0.11;100.00
56721;BME280;53183;47.412;18.884;2023-01-28T03:57:02;99324.25;;;0.16;100.00
56721;BME280;53183;47.412;18.884;2023-01-28T03:59:32;99321.59;;;0.19;100.00
56721;BME280;53183;47.412;18.884;2023-01-28T04:02:00;99324.16;;;0.23;100.00
56721;BME280;53183;47.412;18.884;2023-01-28T04:04:32;99322.50;;;0.18;100.00
56721;BME280;53183;47.412;18.884;2023-01-28T04:06:59;99324.19;;;0.20;100.00
56721;BME280;53183;47.412;18.884;2023-01-28T04:09:28;99314.69;;;0.16;100.00
56721;BME280;53183;47.412;18.884;2023-01-28T04:11:56;99315.53;;;0.20;100.00
56721;BME280;53183;47.412;18.884;2023-01-28T04:14:24;99323.16;;;0.31;100.00
56721;BME280;53183;47.412;18.884;2023-01-28T04:16:51;99323.22;;;0.28;100.00
56721;BME280;53183;47.412;18.884;2023-01-28T04:19:22;99318.06;;;0.23;100.00
56721;BME280;53183;47.412;18.884;2023-01-28T04:21:50;99317.97;;;0.29;100.00
56721;BME280;53183;47.412;18.884;2023-01-28T04:24:21;99327.56;;;0.27;100.00
56721;BME280;53183;47.412;18.884;2023-01-28T04:26:49;99323.16;;;0.31;100.00
56721;BME280;53183;47.412;18.884;2023-01-28T04:29:17;99321.50;;;0.25;100.00
56721;BME280;53183;47.412;18.884;2023-01-28T04:31:46;99334.47;;;0.30;100.00
56721;BME280;53183;47.412;18.884;2023-01-28T04:34:14;99335.41;;;0.22;100.00
56721;BME280;53183;47.412;18.884;2023-01-28T04:36:42;99328.41;;;0.28;100.00
56721;BME280;53183;47.412;18.884;2023-01-28T04:39:10;99329.19;;;0.34;100.00
56721;BME280;53183;47.412;18.884;2023-01-28T04:41:39;99336.34;;;0.20;100.00
56721;BME280;53183;47.412;18.884;2023-01-28T04:44:07;99332.88;;;0.16;100.00
56721;BME280;53183;47.412;18.884;2023-01-28T04:46:35;99333.66;;;0.23;100.00
56721;BME280;53183;47.412;18.884;2023-01-28T04:49:02;99331.19;;;0.17;100.00
56721;BME280;53183;47.412;18.884;2023-01-28T04:51:30;99336.25;;;0.25;100.00
56721;BME280;53183;47.412;18.884;2023-01-28T04:54:00;99333.56;;;0.29;100.00
56721;BME280;53183;47.412;18.884;2023-01-28T04:56:27;99333.66;;;0.23;100.00
56721;BME280;53183;47.412;18.884;2023-01-28T04:58:55;99334.62;;;0.17;100.00
56721;BME280;53183;47.412;18.884;2023-01-28T05:01:23;99342.12;;;0.36;100.00
56721;BME280;53183;47.412;18.884;2023-01-28T05:03:51;99339.41;;;0.46;100.00
56721;BME280;53183;47.412;18.884;2023-01-28T05:06:20;99342.81;;;0.49;100.00
56721;BME280;53183;47.412;18.884;2023-01-28T05:08:47;99336.22;;;0.28;100.00
56721;BME280;53183;47.412;18.884;2023-01-28T05:11:15;99345.87;;;0.18;100.00
56721;BME280;53183;47.412;18.884;2023-01-28T05:13:43;99354.50;;;0.21;100.00
56721;BME280;53183;47.412;18.884;2023-01-28T05:16:11;99352.78;;;0.19;100.00
56721;BME280;53183;47.412;18.884;2023-01-28T05:18:38;99349.41;;;0.14;100.00
56721;BME280;53183;47.412;18.884;2023-01-28T05:21:07;99354.59;;;0.12;100.00
56721;BME280;53183;47.412;18.884;2023-01-28T05:23:35;99351.97;;;0.15;100.00
56721;BME280;53183;47.412;18.884;2023-01-28T05:26:02;99358.91;;;0.15;100.00
56721;BME280;53183;47.412;18.884;2023-01-28T05:28:29;99356.19;;;0.24;100.00
56721;BME280;53183;47.412;18.884;2023-01-28T05:31:01;99355.28;;;0.27;100.00
56721;BME280;53183;47.412;18.884;2023-01-28T05:33:29;99356.97;;;0.31;100.00
56721;BME280;53183;47.412;18.884;2023-01-28T05:35:56;99354.50;;;0.21;100.00
56721;BME280;53183;47.412;18.884;2023-01-28T05:38:24;99363.91;;;0.29;100.00
56721;BME280;53183;47.412;18.884;2023-01-28T05:40:51;99360.56;;;0.20;100.00
56721;BME280;53183;47.412;18.884;2023-01-28T05:43:19;99364.06;;;0.18;100.00
56721;BME280;53183;47.412;18.884;2023-01-28T05:45:47;99367.44;;;0.23;100.00
56721;BME280;53183;47.412;18.884;2023-01-28T05:48:15;99371.06;;;0.14;100.00
56721;BME280;53183;47.412;18.884;2023-01-28T05:50:42;99375.44;;;0.09;100.00
56721;BME280;53183;47.412;18.884;2023-01-28T05:53:10;99367.78;;;-0.02;100.00
56721;BME280;53183;47.412;18.884;2023-01-28T05:55:39;99371.94;;;0.12;100.00
56721;BME280;53183;47.412;18.884;2023-01-28T05:58:06;99377.09;;;0.15;100.00
56721;BME280;53183;47.412;18.884;2023-01-28T06:00:35;99375.47;;;0.08;100.00
56721;BME280;53183;47.412;18.884;2023-01-28T06:03:03;99377.19;;;0.09;100.00
56721;BME280;53183;47.412;18.884;2023-01-28T06:05:31;99372.91;;;0.05;100.00
56721;BME280;53183;47.412;18.884;2023-01-28T06:07:59;99378.06;;;0.08;100.00
56721;BME280;53183;47.412;18.884;2023-01-28T06:10:27;99379.84;;;0.04;100.00
56721;BME280;53183;47.412;18.884;2023-01-28T06:12:54;99381.63;;;-0.01;100.00
56721;BME280;53183;47.412;18.884;2023-01-28T06:15:23;99381.59;;;0.02;100.00
56721;BME280;53183;47.412;18.884;2023-01-28T06:17:50;99384.22;;;0.01;100.00
56721;BME280;53183;47.412;18.884;2023-01-28T06:20:18;99383.34;;;0.02;100.00
56721;BME280;53183;47.412;18.884;2023-01-28T06:22:48;99384.25;;;-0.03;100.00
56721;BME280;53183;47.412;18.884;2023-01-28T06:25:16;99391.22;;;-0.05;100.00
56721;BME280;53183;47.412;18.884;2023-01-28T06:27:44;99392.00;;;0.02;100.00
56721;BME280;53183;47.412;18.884;2023-01-28T06:30:12;99393.63;;;0.09;100.00
56721;BME280;53183;47.412;18.884;2023-01-28T06:32:40;99392.88;;;-0.01;100.00
56721;BME280;53183;47.412;18.884;2023-01-28T06:35:07;99397.16;;;0.05;100.00
56721;BME280;53183;47.412;18.884;2023-01-28T06:37:34;99402.19;;;0.16;100.00
56721;BME280;53183;47.412;18.884;2023-01-28T06:40:02;99401.38;;;0.14;100.00
56721;BME280;53183;47.412;18.884;2023-01-28T06:42:30;99407.37;;;0.16;100.00
56721;BME280;53183;47.412;18.884;2023-01-28T06:44:57;99409.91;;;0.23;100.00
56721;BME280;53183;47.412;18.884;2023-01-28T06:47:25;99411.63;;;0.23;100.00
56721;BME280;53183;47.412;18.884;2023-01-28T06:49:52;99419.41;;;0.25;100.00
56721;BME280;53183;47.412;18.884;2023-01-28T06:52:20;99421.16;;;0.22;100.00
56721;BME280;53183;47.412;18.884;2023-01-28T06:54:47;99432.34;;;0.31;100.00
56721;BME280;53183;47.412;18.884;2023-01-28T06:57:14;99430.66;;;0.25;100.00
56721;BME280;53183;47.412;18.884;2023-01-28T06:59:42;99431.38;;;0.38;100.00
56721;BME280;53183;47.412;18.884;2023-01-28T07:02:10;99440.84;;;0.42;100.00
56721;BME280;53183;47.412;18.884;2023-01-28T07:04:37;99438.44;;;0.30;100.00
56721;BME280;53183;47.412;18.884;2023-01-28T07:07:04;99441.09;;;0.23;100.00
56721;BME280;53183;47.412;18.884;2023-01-28T07:09:32;99438.44;;;0.30;100.00
56721;BME280;53183;47.412;18.884;2023-01-28T07:11:59;99440.88;;;0.40;100.00
56721;BME280;53183;47.412;18.884;2023-01-28T07:14:31;99441.06;;;0.27;100.00
56721;BME280;53183;47.412;18.884;2023-01-28T07:16:58;99448.88;;;0.25;100.00
56721;BME280;53183;47.412;18.884;2023-01-28T07:19:26;99447.94;;;0.31;100.00
56721;BME280;53183;47.412;18.884;2023-01-28T07:21:53;99450.56;;;0.26;100.00
56721;BME280;53183;47.412;18.884;2023-01-28T07:24:24;99449.53;;;0.39;100.00
56721;BME280;53183;47.412;18.884;2023-01-28T07:26:51;99457.38;;;0.38;100.00
56721;BME280;53183;47.412;18.884;2023-01-28T07:29:18;99460.87;;;0.34;100.00
56721;BME280;53183;47.412;18.884;2023-01-28T07:31:46;99461.81;;;0.28;100.00
56721;BME280;53183;47.412;18.884;2023-01-28T07:34:13;99467.09;;;0.23;100.00
56721;BME280;53183;47.412;18.884;2023-01-28T07:36:40;99463.56;;;0.28;100.00
56721;BME280;53183;47.412;18.884;2023-01-28T07:39:08;99460.16;;;0.24;100.00
56721;BME280;53183;47.412;18.884;2023-01-28T07:41:35;99461.75;;;0.34;100.00
56721;BME280;53183;47.412;18.884;2023-01-28T07:44:03;99469.63;;;0.30;100.00
56721;BME280;53183;47.412;18.884;2023-01-28T07:46:31;99474.78;;;0.31;100.00
56721;BME280;53183;47.412;18.884;2023-01-28T07:48:58;99467.06;;;0.27;100.00
56721;BME280;53183;47.412;18.884;2023-01-28T07:51:25;99478.16;;;0.38;100.00
56721;BME280;53183;47.412;18.884;2023-01-28T07:53:53;99470.56;;;0.19;100.00
56721;BME280;53183;47.412;18.884;2023-01-28T07:56:20;99470.56;;;0.21;100.00
56721;BME280;53183;47.412;18.884;2023-01-28T07:58:50;99475.63;;;0.32;100.00
56721;BME280;53183;47.412;18.884;2023-01-28T08:01:18;99474.66;;;0.39;100.00
56721;BME280;53183;47.412;18.884;2023-01-28T08:03:46;99482.50;;;0.36;100.00
56721;BME280;53183;47.412;18.884;2023-01-28T08:06:13;99480.84;;;0.32;100.00
56721;BME280;53183;47.412;18.884;2023-01-28T08:08:40;99485.09;;;0.37;100.00
56721;BME280;53183;47.412;18.884;2023-01-28T08:11:08;99481.47;;;0.49;100.00
56721;BME280;53183;47.412;18.884;2023-01-28T08:13:36;99481.28;;;0.64;100.00
56721;BME280;53183;47.412;18.884;2023-01-28T08:16:04;99489.13;;;0.61;100.00
56721;BME280;53183;47.412;18.884;2023-01-28T08:18:32;99487.22;;;0.74;100.00
56721;BME280;53183;47.412;18.884;2023-01-28T08:20:59;99481.06;;;0.80;100.00
56721;BME280;53183;47.412;18.884;2023-01-28T08:23:26;99490.59;;;0.81;100.00
56721;BME280;53183;47.412;18.884;2023-01-28T08:25:54;99485.25;;;0.88;100.00
56721;BME280;53183;47.412;18.884;2023-01-28T08:28:21;99486.84;;;1.00;99.67
56721;BME280;53183;47.412;18.884;2023-01-28T08:30:48;99483.28;;;1.04;100.00
56721;BME280;53183;47.412;18.884;2023-01-28T08:33:16;99481.38;;;1.17;100.00
56721;BME280;53183;47.412;18.884;2023-01-28T08:35:45;99486.66;;;1.11;100.00
56721;BME280;53183;47.412;18.884;2023-01-28T08:38:12;99482.16;;;1.21;100.00
56721;BME280;53183;47.412;18.884;2023-01-28T08:40:41;99489.69;;;1.39;99.21
56721;BME280;53183;47.412;18.884;2023-01-28T08:43:08;99490.47;;;1.44;98.56
56721;BME280;53183;47.412;18.884;2023-01-28T08:45:36;99495.75;;;1.38;98.26
56721;BME280;53183;47.412;18.884;2023-01-28T08:48:06;99492.31;;;1.39;98.72
56721;BME280;53183;47.412;18.884;2023-01-28T08:50:34;99498.37;;;1.38;98.76
56721;BME280;53183;47.412;18.884;2023-01-28T08:53:03;99500.81;;;1.47;98.54
56721;BME280;53183;47.412;18.884;2023-01-28T08:55:31;99505.37;;;1.36;98.04
56721;BME280;53183;47.412;18.884;2023-01-28T08:58:02;99505.28;;;1.42;98.79
56721;BME280;53183;47.412;18.884;2023-01-28T09:00:30;99510.75;;;1.24;99.31
56721;BME280;53183;47.412;18.884;2023-01-28T09:02:58;99512.22;;;1.42;100.00
56721;BME280;53183;47.412;18.884;2023-01-28T09:05:25;99511.19;;;1.50;99.01
56721;BME280;53183;47.412;18.884;2023-01-28T09:07:53;99513.03;;;1.45;98.70
56721;BME280;53183;47.412;18.884;2023-01-28T09:10:20;99516.50;;;1.46;98.75
56721;BME280;53183;47.412;18.884;2023-01-28T09:12:48;99516.69;;;1.33;100.00
56721;BME280;53183;47.412;18.884;2023-01-28T09:15:15;99520.56;;;1.62;100.00
56721;BME280;53183;47.412;18.884;2023-01-28T09:17:43;99526.91;;;1.44;99.57
56721;BME280;53183;47.412;18.884;2023-01-28T09:20:10;99526.00;;;1.48;99.67
56721;BME280;53183;47.412;18.884;2023-01-28T09:22:39;99526.00;;;1.47;99.14
56721;BME280;53183;47.412;18.884;2023-01-28T09:25:07;99523.06;;;1.67;99.81
56721;BME280;53183;47.412;18.884;2023-01-28T09:27:35;99529.19;;;1.64;98.72
56721;BME280;53183;47.412;18.884;2023-01-28T09:30:02;99533.31;;;1.77;98.02
56721;BME280;53183;47.412;18.884;2023-01-28T09:32:30;99531.50;;;1.81;97.85
56721;BME280;53183;47.412;18.884;2023-01-28T09:34:57;99536.44;;;1.98;98.03
56721;BME280;53183;47.412;18.884;2023-01-28T09:37:24;99542.47;;;2.00;96.85
56721;BME280;53183;47.412;18.884;2023-01-28T09:39:52;99533.78;;;2.01;95.86
56721;BME280;53183;47.412;18.884;2023-01-28T09:42:41;99535.50;;;2.00;96.53
56721;BME280;53183;47.412;18.884;2023-01-28T09:45:16;99538.69;;;1.67;97.22
56721;BME280;53183;47.412;18.884;2023-01-28T09:47:47;99533.94;;;1.92;97.57
56721;BME280;53183;47.412;18.884;2023-01-28T09:50:23;99537.25;;;2.00;96.06
56721;BME280;53183;47.412;18.884;2023-01-28T09:52:53;99539.41;;;1.78;95.32
56721;BME280;53183;47.412;18.884;2023-01-28T09:55:35;99537.75;;;1.72;98.07
56721;BME280;53183;47.412;18.884;2023-01-28T09:58:10;99526.97;;;1.92;97.13
56721;BME280;53183;47.412;18.884;2023-01-28T10:00:45;99530.53;;;1.88;96.54
56721;BME280;53183;47.412;18.884;2023-01-28T10:03:23;99523.88;;;2.18;96.55
56721;BME280;53183;47.412;18.884;2023-01-28T10:13:49;99522.69;;;2.34;95.58
56721;BME280;53183;47.412;18.884;2023-01-28T10:16:34;99520.03;;;2.38;94.65
56721;BME280;53183;47.412;18.884;2023-01-28T10:19:04;99521.63;;;2.43;92.65
56721;BME280;53183;47.412;18.884;2023-01-28T10:24:02;99517.31;;;2.44;91.77
56721;BME280;53183;47.412;18.884;2023-01-28T10:26:35;99515.94;;;2.66;92.59
56721;BME280;53183;47.412;18.884;2023-01-28T10:29:08;99524.25;;;2.85;91.03
56721;BME280;53183;47.412;18.884;2023-01-28T10:31:39;99521.63;;;2.87;89.42
56721;BME280;53183;47.412;18.884;2023-01-28T10:34:08;99523.06;;;2.98;90.45
56721;BME280;53183;47.412;18.884;2023-01-28T10:36:36;99516.03;;;3.02;88.44
56721;BME280;53183;47.412;18.884;2023-01-28T10:39:03;99521.44;;;2.94;90.33
56721;BME280;53183;47.412;18.884;2023-01-28T10:41:32;99521.97;;;3.09;88.54
56721;BME280;53183;47.412;18.884;2023-01-28T10:44:00;99526.47;;;3.02;87.60
56721;BME280;53183;47.412;18.884;2023-01-28T10:46:31;99537.63;;;3.09;87.94
56721;BME280;53183;47.412;18.884;2023-01-28T10:49:05;99525.56;;;3.04;88.44
56721;BME280;53183;47.412;18.884;2023-01-28T10:51:39;99525.28;;;3.17;87.33
56721;BME280;53183;47.412;18.884;2023-01-28T10:56:47;99522.56;;;3.21;87.58
56721;BME280;53183;47.412;18.884;2023-01-28T10:59:24;99519.78;;;2.90;88.37
56721;BME280;53183;47.412;18.884;2023-01-28T11:06:54;99516.81;;;2.67;89.52
56721;BME280;53183;47.412;18.884;2023-01-28T11:09:23;99521.09;;;2.71;89.98
56721;BME280;53183;47.412;18.884;2023-01-28T11:11:50;99520.31;;;2.66;88.64
56721;BME280;53183;47.412;18.884;2023-01-28T11:14:18;99525.47;;;2.69;88.78
56721;BME280;53183;47.412;18.884;2023-01-28T11:16:46;99518.09;;;2.47;91.53
56721;BME280;53183;47.412;18.884;2023-01-28T11:19:14;99515.28;;;2.56;90.53
56721;BME280;53183;47.412;18.884;2023-01-28T11:21:49;99518.72;;;2.60;89.84
56721;BME280;53183;47.412;18.884;2023-01-28T11:24:20;99519.69;;;2.54;91.42
56721;BME280;53183;47.412;18.884;2023-01-28T11:26:49;99512.00;;;2.47;91.38
56721;BME280;53183;47.412;18.884;2023-01-28T11:29:29;99513.19;;;2.32;92.09
56721;BME280;53183;47.412;18.884;2023-01-28T11:31:59;99514.94;;;2.31;91.41
56721;BME280;53183;47.412;18.884;2023-01-28T11:34:28;99520.56;;;2.10;94.65
56721;BME280;53183;47.412;18.884;2023-01-28T11:37:03;99518.09;;;2.02;94.28
56721;BME280;53183;47.412;18.884;2023-01-28T11:39:31;99511.81;;;2.12;93.52
56721;BME280;53183;47.412;18.884;2023-01-28T11:42:32;99505.41;;;2.29;93.97
56721;BME280;53183;47.412;18.884;2023-01-28T11:44:53;99509.66;;;2.33;93.24
56721;BME280;53183;47.412;18.884;2023-01-28T11:47:35;99507.34;;;2.21;94.49
56721;BME280;53183;47.412;18.884;2023-01-28T12:00:42;99502.62;;;2.38;91.96
56721;BME280;53183;47.412;18.884;2023-01-28T12:08:18;99497.34;;;2.81;89.84
56721;BME280;53183;47.412;18.884;2023-01-28T12:13:36;99491.72;;;2.61;89.87
56721;BME280;53183;47.412;18.884;2023-01-28T12:21:06;99485.28;;;2.77;89.68
56721;BME280;53183;47.412;18.884;2023-01-28T12:31:33;99490.22;;;3.25;87.83
56721;BME280;53183;47.412;18.884;2023-01-28T12:36:57;99493.81;;;3.23;87.43
56721;BME280;53183;47.412;18.884;2023-01-28T12:42:20;99489.94;;;3.39;87.73
56721;BME280;53183;47.412;18.884;2023-01-28T12:44:53;99498.50;;;3.44;87.02
56721;BME280;53183;47.412;18.884;2023-01-28T12:47:25;99503.00;;;3.39;86.92
56721;BME280;53183;47.412;18.884;2023-01-28T12:49:55;99499.16;;;3.17;87.29
56721;BME280;53183;47.412;18.884;2023-01-28T12:57:27;99500.72;;;3.24;87.88
56721;BME280;53183;47.412;18.884;2023-01-28T13:02:28;99496.47;;;3.56;86.77
56721;BME280;53183;47.412;18.884;2023-01-28T13:05:09;99500.19;;;3.45;86.47
56721;BME280;53183;47.412;18.884;2023-01-28T13:07:43;99500.19;;;3.45;87.46
56721;BME280;53183;47.412;18.884;2023-01-28T13:12:52;99508.66;;;3.57;87.40
56721;BME280;53183;47.412;18.884;2023-01-28T13:15:21;99510.78;;;3.75;86.91
56721;BME280;53183;47.412;18.884;2023-01-28T13:17:58;99512.59;;;3.71;85.45
56721;BME280;53183;47.412;18.884;2023-01-28T13:23:00;99516.69;;;3.49;87.06
56721;BME280;53183;47.412;18.884;2023-01-28T13:25:28;99520.94;;;3.51;87.00
56721;BME280;53183;47.412;18.884;2023-01-28T13:27:59;99518.53;;;3.44;86.37
56721;BME280;53183;47.412;18.884;2023-01-28T13:32:58;99521.41;;;3.33;87.38
56721;BME280;53183;47.412;18.884;2023-01-28T13:35:30;99525.47;;;3.08;87.70
56721;BME280;53183;47.412;18.884;2023-01-28T13:37:59;99528.28;;;2.98;89.36
56721;BME280;53183;47.412;18.884;2023-01-28T13:40:31;99530.97;;;2.97;88.59
56721;BME280;53183;47.412;18.884;2023-01-28T13:43:03;99531.75;;;2.99;88.44
56721;BME280;53183;47.412;18.884;2023-01-28T13:45:31;99538.59;;;3.04;88.63
56721;BME280;53183;47.412;18.884;2023-01-28T13:48:22;99536.91;;;3.02;88.97
56721;BME280;53183;47.412;18.884;2023-01-28T13:50:47;99544.72;;;3.03;89.04
56721;BME280;53183;47.412;18.884;2023-01-28T13:53:33;99542.50;;;2.85;90.11
56721;BME280;53183;47.412;18.884;2023-01-28T13:56:03;99545.31;;;2.76;90.26
56721;BME280;53183;47.412;18.884;2023-01-28T14:01:08;99547.12;;;2.74;91.48
56721;BME280;53183;47.412;18.884;2023-01-28T14:03:57;99555.75;;;2.76;91.27
56721;BME280;53183;47.412;18.884;2023-01-28T14:06:43;99548.69;;;2.81;89.98
56721;BME280;53183;47.412;18.884;2023-01-28T14:09:35;99558.47;;;2.71;90.75
56721;BME280;53183;47.412;18.884;2023-01-28T14:17:43;99558.72;;;2.59;91.74
56721;BME280;53183;47.412;18.884;2023-01-28T14:20:23;99555.97;;;2.67;92.46
56721;BME280;53183;47.412;18.884;2023-01-28T14:22:58;99565.50;;;2.66;91.03
56721;BME280;53183;47.412;18.884;2023-01-28T14:26:15;99565.22;;;2.38;91.99
56721;BME280;53183;47.412;18.884;2023-01-28T14:28:20;99570.31;;;2.44;93.08
56721;BME280;53183;47.412;18.884;2023-01-28T14:30:55;99569.31;;;2.50;92.16
56721;BME280;53183;47.412;18.884;2023-01-28T14:33:27;99574.91;;;2.31;93.56
56721;BME280;53183;47.412;18.884;2023-01-28T14:35:54;99580.88;;;2.38;93.09
56721;BME280;53183;47.412;18.884;2023-01-28T14:38:22;99585.19;;;2.39;93.26
56721;BME280;53183;47.412;18.884;2023-01-28T14:40:50;99583.47;;;2.38;92.84
56721;BME280;53183;47.412;18.884;2023-01-28T14:43:19;99583.53;;;2.33;94.02
56721;BME280;53183;47.412;18.884;2023-01-28T14:51:14;99586.38;;;2.23;93.73
56721;BME280;53183;47.412;18.884;2023-01-28T15:01:53;99594.53;;;2.04;94.87
56721;BME280;53183;47.412;18.884;2023-01-28T15:04:33;99599.66;;;2.09;94.52
56721;BME280;53183;47.412;18.884;2023-01-28T15:07:10;99600.84;;;1.91;95.46
56721;BME280;53183;47.412;18.884;2023-01-28T15:09:41;99592.31;;;1.81;96.21